x

Newport, Or (nwpo3) Weather Station

10:00pm - Fri 28th Nov 2014 All times are PST. -8 hours from GMT.

  • Wind
    17mph, 20mph gusts
  • Air Temp 49°f
  • Sea Pressure 1004.4mb
  • Newport, Or
  • Newport, Or

More Historic Weather Station data

Upgrade to MSW Pro to gain access to the past 30 days of data for over 8000 Wavebouys and Weather Stations around the globe.

Join Pro

Comparision Forecast

View Surf forecast
   
Fri 11/28 10:00pm 17 20 mph 1004.4mb 49f
9:00pm 23 26 mph 1003.9mb 51f
8:00pm 18 22 mph 1003.6mb 49f
7:00pm 21 23 mph 1003.1mb 48f
6:00pm 22 24 mph 1002.7mb 49f
5:00pm 26 30 mph 1001.5mb 50f
4:00pm 29 32 mph 1001mb 57f
3:00pm 26 31 mph 1001mb 56f
2:00pm 30 38 mph 1001.4mb 57f
1:00pm 28 34 mph 1001.1mb 58f
12:00pm 29 34 mph 1001.4mb 57f
11:00am 25 29 mph 1002.6mb 56f
10:00am 26 33 mph 1003mb 56f
9:00am 32 38 mph 1003.2mb 57f
8:00am 33 43 mph 1003.6mb 56f
7:00am 33 39 mph 1004.3mb 56f
6:00am 30 38 mph 1005mb 56f
5:00am 26 30 mph 1006.1mb 56f
4:00am 32 38 mph 1006.7mb 56f
3:00am 31 37 mph 1007.6mb 56f
2:00am 17 21 mph 1008.2mb 54f
1:00am 15 17 mph 1008.8mb 54f
12:00am 23 28 mph 1009.5mb 55f
Thu 11/27 11:00pm 21 25 mph 1009.6mb 54f
10:00pm 18 22 mph 1010.4mb 55f
9:00pm 20 23 mph 1010.9mb 55f
8:00pm 22 28 mph 1011.5mb 56f
7:00pm 14 17 mph 1011.7mb 55f
6:00pm 21 24 mph 1012.3mb 55f
5:00pm 26 33 mph 1012.8mb 56f
4:00pm 29 33 mph 1012.9mb 55f
3:00pm 21 28 mph 1012.8mb 56f
2:00pm 24 30 mph 1013.2mb 55f
1:00pm 21 25 mph 1014mb 55f
12:00pm 16 18 mph 1014.3mb 55f
11:00am 18 23 mph 1014.9mb 54f
10:00am 18 22 mph 1015.4mb 54f
9:00am 26 30 mph 1015.6mb 55f
8:00am 30 37 mph 1015.2mb 56f
7:00am 36 44 mph 1015.3mb 56f
6:00am 25 31 mph 1015.2mb 57f
5:00am 31 39 mph 1014.9mb 57f
4:00am 26 34 mph 1015mb 57f
3:00am 26 31 mph 1015.8mb 57f
2:00am 33 40 mph 1015.6mb 57f
1:00am 29 32 mph 1015.4mb 57f
12:00am 33 39 mph 1015.7mb 58f
Wed 11/26 11:00pm 31 37 mph 1015.9mb 59f
10:00pm 26 32 mph 1015.9mb 59f
9:00pm 21 25 mph 1015.7mb 59f
8:00pm 25 29 mph 1016.5mb 59f
7:00pm 24 29 mph 1016.5mb 60f
6:00pm 23 26 mph 1017mb 61f
5:00pm 23 29 mph 1016.4mb 62f
4:00pm 23 29 mph 1017mb 61f
3:00pm 16 20 mph 1017.8mb 60f
2:00pm 21 23 mph 1018.8mb 60f
1:00pm 9 14 mph 1019.3mb 61f
12:00pm 7 8 mph 1019.9mb 61f
11:00am 5 6 mph 1020.9mb 59f
10:00am 5
mph
1021.1mb 56f
9:00am 7 9 mph 1020.6mb 53f
8:00am 7 8 mph 1020.9mb 51f
7:00am 6
mph
1022mb 51f
6:00am 3
mph
1022.5mb 53f
5:00am 3 5 mph 1023.4mb 53f
4:00am 3
mph
1024mb 53f
3:00am 2
mph
1025.1mb 53f
2:00am 11 14 mph 1025.6mb 54f
1:00am 11 13 mph 1025.9mb 54f
12:00am 10 13 mph 1026mb 55f
Tue 11/25 11:00pm 16 20 mph 1026.2mb 55f
10:00pm 17 18 mph 1026.5mb 56f
9:00pm 16 20 mph 1026.4mb 56f
8:00pm 13 16 mph 1026.7mb 56f
7:00pm 14 16 mph 1026.9mb 56f
6:00pm 15 21 mph 1027.2mb 56f
5:00pm 17 21 mph 1027.8mb 56f
4:00pm 18 22 mph 1028mb 56f
3:00pm 18 22 mph 1028.2mb 56f
2:00pm 16 18 mph 1028mb 57f
1:00pm 17 20 mph 1028.2mb 57f
12:00pm 17 20 mph 1028.9mb 57f
11:00am 20 22 mph 1029.1mb 57f
10:00am 21 24 mph 1029mb 57f
9:00am 20 24 mph 1028.6mb 57f
8:00am 18 22 mph 1028.5mb 57f